sensor_id;sensor_type;location;lat;lon;timestamp;P1;durP1;ratioP1;P2;durP2;ratioP2
22172;SDS011;11252;50.596;17.648;2023-03-20T00:01:43;48.03;;;33.27;;
22172;SDS011;11252;50.596;17.648;2023-03-20T00:04:04;50.63;;;33.53;;
22172;SDS011;11252;50.596;17.648;2023-03-20T00:06:31;48.43;;;33.03;;
22172;SDS011;11252;50.596;17.648;2023-03-20T00:08:58;43.77;;;29.87;;
22172;SDS011;11252;50.596;17.648;2023-03-20T00:11:33;47.80;;;33.13;;
22172;SDS011;11252;50.596;17.648;2023-03-20T00:14:06;48.10;;;31.60;;
22172;SDS011;11252;50.596;17.648;2023-03-20T00:16:40;55.60;;;34.63;;
22172;SDS011;11252;50.596;17.648;2023-03-20T00:19:12;48.23;;;32.40;;
22172;SDS011;11252;50.596;17.648;2023-03-20T00:21:43;51.03;;;31.00;;
22172;SDS011;11252;50.596;17.648;2023-03-20T00:24:13;48.63;;;30.90;;
22172;SDS011;11252;50.596;17.648;2023-03-20T00:26:42;55.03;;;30.67;;
22172;SDS011;11252;50.596;17.648;2023-03-20T00:29:20;45.03;;;30.03;;
22172;SDS011;11252;50.596;17.648;2023-03-20T00:31:49;40.83;;;27.67;;
22172;SDS011;11252;50.596;17.648;2023-03-20T00:34:18;45.03;;;28.47;;
22172;SDS011;11252;50.596;17.648;2023-03-20T00:36:49;40.67;;;26.60;;
22172;SDS011;11252;50.596;17.648;2023-03-20T00:39:17;37.73;;;25.57;;
22172;SDS011;11252;50.596;17.648;2023-03-20T00:44:33;33.87;;;23.57;;
22172;SDS011;11252;50.596;17.648;2023-03-20T00:47:05;32.57;;;21.60;;
22172;SDS011;11252;50.596;17.648;2023-03-20T00:49:42;28.90;;;20.10;;
22172;SDS011;11252;50.596;17.648;2023-03-20T00:52:17;29.10;;;20.50;;
22172;SDS011;11252;50.596;17.648;2023-03-20T00:54:46;28.30;;;19.23;;
22172;SDS011;11252;50.596;17.648;2023-03-20T00:57:48;25.50;;;18.27;;
22172;SDS011;11252;50.596;17.648;2023-03-20T01:00:42;26.67;;;17.87;;
22172;SDS011;11252;50.596;17.648;2023-03-20T01:05:44;25.33;;;18.33;;
22172;SDS011;11252;50.596;17.648;2023-03-20T01:08:12;23.37;;;17.07;;
22172;SDS011;11252;50.596;17.648;2023-03-20T01:10:42;21.83;;;16.67;;
22172;SDS011;11252;50.596;17.648;2023-03-20T01:15:49;24.00;;;16.30;;
22172;SDS011;11252;50.596;17.648;2023-03-20T01:18:19;26.10;;;17.40;;
22172;SDS011;11252;50.596;17.648;2023-03-20T01:20:48;27.17;;;18.37;;
22172;SDS011;11252;50.596;17.648;2023-03-20T01:23:16;25.00;;;17.40;;
22172;SDS011;11252;50.596;17.648;2023-03-20T01:25:45;27.73;;;17.57;;
22172;SDS011;11252;50.596;17.648;2023-03-20T01:28:19;20.83;;;16.67;;
22172;SDS011;11252;50.596;17.648;2023-03-20T01:30:49;24.67;;;17.03;;
22172;SDS011;11252;50.596;17.648;2023-03-20T01:36:04;21.47;;;16.67;;
22172;SDS011;11252;50.596;17.648;2023-03-20T01:38:32;22.50;;;16.13;;
22172;SDS011;11252;50.596;17.648;2023-03-20T01:43:36;23.17;;;17.70;;
22172;SDS011;11252;50.596;17.648;2023-03-20T01:51:24;24.13;;;17.87;;
22172;SDS011;11252;50.596;17.648;2023-03-20T01:53:55;23.63;;;18.47;;
22172;SDS011;11252;50.596;17.648;2023-03-20T01:56:28;26.00;;;19.30;;
22172;SDS011;11252;50.596;17.648;2023-03-20T01:59:00;24.77;;;17.10;;
22172;SDS011;11252;50.596;17.648;2023-03-20T02:01:31;21.93;;;17.87;;
22172;SDS011;11252;50.596;17.648;2023-03-20T02:04:01;23.97;;;17.57;;
22172;SDS011;11252;50.596;17.648;2023-03-20T02:06:29;23.77;;;17.90;;
22172;SDS011;11252;50.596;17.648;2023-03-20T02:08:57;22.43;;;17.73;;
22172;SDS011;11252;50.596;17.648;2023-03-20T02:11:25;21.40;;;17.30;;
22172;SDS011;11252;50.596;17.648;2023-03-20T02:13:53;23.27;;;16.77;;
22172;SDS011;11252;50.596;17.648;2023-03-20T02:16:24;24.30;;;19.20;;
22172;SDS011;11252;50.596;17.648;2023-03-20T02:18:52;26.90;;;18.07;;
22172;SDS011;11252;50.596;17.648;2023-03-20T02:24:36;26.67;;;18.63;;
22172;SDS011;11252;50.596;17.648;2023-03-20T02:27:20;27.43;;;18.97;;
22172;SDS011;11252;50.596;17.648;2023-03-20T02:30:22;25.00;;;18.97;;
22172;SDS011;11252;50.596;17.648;2023-03-20T02:41:27;24.57;;;19.13;;
22172;SDS011;11252;50.596;17.648;2023-03-20T02:44:05;22.70;;;19.63;;
22172;SDS011;11252;50.596;17.648;2023-03-20T02:54:44;24.47;;;19.17;;
22172;SDS011;11252;50.596;17.648;2023-03-20T03:00:13;24.73;;;18.47;;
22172;SDS011;11252;50.596;17.648;2023-03-20T03:05:39;25.93;;;19.30;;
22172;SDS011;11252;50.596;17.648;2023-03-20T03:08:27;25.77;;;18.90;;
22172;SDS011;11252;50.596;17.648;2023-03-20T03:11:01;27.20;;;20.30;;
22172;SDS011;11252;50.596;17.648;2023-03-20T03:13:32;26.13;;;20.67;;
22172;SDS011;11252;50.596;17.648;2023-03-20T03:16:23;25.73;;;19.43;;
22172;SDS011;11252;50.596;17.648;2023-03-20T03:19:07;29.40;;;21.23;;
22172;SDS011;11252;50.596;17.648;2023-03-20T03:21:38;28.80;;;20.80;;
22172;SDS011;11252;50.596;17.648;2023-03-20T03:27:17;26.87;;;21.27;;
22172;SDS011;11252;50.596;17.648;2023-03-20T03:29:55;26.73;;;20.90;;
22172;SDS011;11252;50.596;17.648;2023-03-20T03:32:34;29.70;;;22.23;;
22172;SDS011;11252;50.596;17.648;2023-03-20T03:35:09;27.90;;;22.73;;
22172;SDS011;11252;50.596;17.648;2023-03-20T03:43:25;28.80;;;23.03;;
22172;SDS011;11252;50.596;17.648;2023-03-20T03:46:10;29.07;;;23.40;;
22172;SDS011;11252;50.596;17.648;2023-03-20T03:48:51;32.80;;;23.70;;
22172;SDS011;11252;50.596;17.648;2023-03-20T03:51:22;31.43;;;23.40;;
22172;SDS011;11252;50.596;17.648;2023-03-20T03:53:56;32.47;;;24.67;;
22172;SDS011;11252;50.596;17.648;2023-03-20T03:56:46;30.40;;;24.17;;
22172;SDS011;11252;50.596;17.648;2023-03-20T03:59:23;28.10;;;22.43;;
22172;SDS011;11252;50.596;17.648;2023-03-20T04:01:59;31.33;;;24.93;;
22172;SDS011;11252;50.596;17.648;2023-03-20T04:04:31;29.50;;;23.93;;
22172;SDS011;11252;50.596;17.648;2023-03-20T04:06:59;33.97;;;25.27;;
22172;SDS011;11252;50.596;17.648;2023-03-20T04:09:27;33.30;;;25.03;;
22172;SDS011;11252;50.596;17.648;2023-03-20T04:11:55;34.27;;;25.73;;
22172;SDS011;11252;50.596;17.648;2023-03-20T04:14:22;30.17;;;24.07;;
22172;SDS011;11252;50.596;17.648;2023-03-20T04:16:50;34.17;;;26.67;;
22172;SDS011;11252;50.596;17.648;2023-03-20T04:19:17;32.90;;;26.17;;
22172;SDS011;11252;50.596;17.648;2023-03-20T04:21:45;37.17;;;27.47;;
22172;SDS011;11252;50.596;17.648;2023-03-20T04:24:13;31.07;;;24.40;;
22172;SDS011;11252;50.596;17.648;2023-03-20T04:26:41;33.33;;;27.27;;
22172;SDS011;11252;50.596;17.648;2023-03-20T04:29:08;31.47;;;26.60;;
22172;SDS011;11252;50.596;17.648;2023-03-20T04:31:36;33.03;;;26.33;;
22172;SDS011;11252;50.596;17.648;2023-03-20T04:34:04;30.87;;;26.20;;
22172;SDS011;11252;50.596;17.648;2023-03-20T04:36:31;31.77;;;25.90;;
22172;SDS011;11252;50.596;17.648;2023-03-20T04:38:59;29.23;;;25.00;;
22172;SDS011;11252;50.596;17.648;2023-03-20T04:41:27;29.93;;;23.80;;
22172;SDS011;11252;50.596;17.648;2023-03-20T04:43:55;32.97;;;24.67;;
22172;SDS011;11252;50.596;17.648;2023-03-20T04:46:22;32.53;;;26.03;;
22172;SDS011;11252;50.596;17.648;2023-03-20T04:48:50;32.33;;;27.20;;
22172;SDS011;11252;50.596;17.648;2023-03-20T04:51:17;31.43;;;26.73;;
22172;SDS011;11252;50.596;17.648;2023-03-20T04:53:45;33.60;;;25.70;;
22172;SDS011;11252;50.596;17.648;2023-03-20T04:56:13;32.80;;;26.60;;
22172;SDS011;11252;50.596;17.648;2023-03-20T04:58:40;32.13;;;26.40;;
22172;SDS011;11252;50.596;17.648;2023-03-20T05:01:08;32.40;;;26.90;;
22172;SDS011;11252;50.596;17.648;2023-03-20T05:03:37;32.43;;;26.23;;
22172;SDS011;11252;50.596;17.648;2023-03-20T05:06:05;35.77;;;27.60;;
22172;SDS011;11252;50.596;17.648;2023-03-20T05:08:32;36.80;;;27.20;;
22172;SDS011;11252;50.596;17.648;2023-03-20T05:11:00;29.90;;;25.70;;
22172;SDS011;11252;50.596;17.648;2023-03-20T05:13:29;32.10;;;27.13;;
22172;SDS011;11252;50.596;17.648;2023-03-20T05:15:57;31.63;;;26.17;;
22172;SDS011;11252;50.596;17.648;2023-03-20T05:18:24;32.87;;;28.27;;
22172;SDS011;11252;50.596;17.648;2023-03-20T05:20:51;34.30;;;27.97;;
22172;SDS011;11252;50.596;17.648;2023-03-20T05:23:19;36.63;;;27.97;;
22172;SDS011;11252;50.596;17.648;2023-03-20T05:25:46;36.10;;;27.70;;
22172;SDS011;11252;50.596;17.648;2023-03-20T05:28:14;35.13;;;28.60;;
22172;SDS011;11252;50.596;17.648;2023-03-20T05:30:41;36.23;;;28.80;;
22172;SDS011;11252;50.596;17.648;2023-03-20T05:33:09;37.63;;;30.87;;
22172;SDS011;11252;50.596;17.648;2023-03-20T05:35:36;35.80;;;30.03;;
22172;SDS011;11252;50.596;17.648;2023-03-20T05:38:05;39.67;;;30.60;;
22172;SDS011;11252;50.596;17.648;2023-03-20T05:40:32;36.83;;;30.10;;
22172;SDS011;11252;50.596;17.648;2023-03-20T05:42:59;37.83;;;30.40;;
22172;SDS011;11252;50.596;17.648;2023-03-20T05:45:27;40.03;;;33.10;;
22172;SDS011;11252;50.596;17.648;2023-03-20T05:47:55;37.53;;;31.00;;
22172;SDS011;11252;50.596;17.648;2023-03-20T05:50:23;43.20;;;35.23;;
22172;SDS011;11252;50.596;17.648;2023-03-20T05:52:51;35.53;;;30.87;;
22172;SDS011;11252;50.596;17.648;2023-03-20T05:55:18;38.27;;;31.43;;
22172;SDS011;11252;50.596;17.648;2023-03-20T05:57:45;42.70;;;33.87;;
22172;SDS011;11252;50.596;17.648;2023-03-20T06:00:13;46.47;;;35.40;;
22172;SDS011;11252;50.596;17.648;2023-03-20T06:02:41;42.87;;;35.47;;
22172;SDS011;11252;50.596;17.648;2023-03-20T06:05:12;45.60;;;35.57;;
22172;SDS011;11252;50.596;17.648;2023-03-20T06:07:39;38.63;;;33.10;;
22172;SDS011;11252;50.596;17.648;2023-03-20T06:10:07;41.20;;;32.57;;
22172;SDS011;11252;50.596;17.648;2023-03-20T06:12:35;40.67;;;33.00;;
22172;SDS011;11252;50.596;17.648;2023-03-20T06:15:04;41.00;;;33.27;;
22172;SDS011;11252;50.596;17.648;2023-03-20T06:17:32;38.33;;;32.50;;
22172;SDS011;11252;50.596;17.648;2023-03-20T06:20:00;40.40;;;33.13;;
22172;SDS011;11252;50.596;17.648;2023-03-20T06:22:27;38.40;;;30.60;;
22172;SDS011;11252;50.596;17.648;2023-03-20T06:24:55;40.90;;;34.50;;
22172;SDS011;11252;50.596;17.648;2023-03-20T06:27:22;42.67;;;36.93;;
22172;SDS011;11252;50.596;17.648;2023-03-20T06:29:50;48.37;;;37.60;;
22172;SDS011;11252;50.596;17.648;2023-03-20T06:32:17;40.00;;;33.57;;
22172;SDS011;11252;50.596;17.648;2023-03-20T06:34:44;43.70;;;34.67;;
22172;SDS011;11252;50.596;17.648;2023-03-20T06:37:12;46.03;;;36.27;;
22172;SDS011;11252;50.596;17.648;2023-03-20T06:39:40;41.53;;;35.50;;
22172;SDS011;11252;50.596;17.648;2023-03-20T06:42:07;53.57;;;41.73;;
22172;SDS011;11252;50.596;17.648;2023-03-20T06:44:35;56.37;;;43.23;;
22172;SDS011;11252;50.596;17.648;2023-03-20T06:47:03;52.30;;;42.53;;
22172;SDS011;11252;50.596;17.648;2023-03-20T06:49:31;50.93;;;40.13;;
22172;SDS011;11252;50.596;17.648;2023-03-20T06:51:58;52.23;;;38.50;;
22172;SDS011;11252;50.596;17.648;2023-03-20T06:54:25;43.17;;;34.63;;
22172;SDS011;11252;50.596;17.648;2023-03-20T06:56:53;48.03;;;35.70;;
22172;SDS011;11252;50.596;17.648;2023-03-20T06:59:21;43.80;;;35.93;;
22172;SDS011;11252;50.596;17.648;2023-03-20T07:01:49;43.43;;;36.50;;
22172;SDS011;11252;50.596;17.648;2023-03-20T07:04:16;48.13;;;38.03;;
22172;SDS011;11252;50.596;17.648;2023-03-20T07:06:44;52.97;;;39.53;;
22172;SDS011;11252;50.596;17.648;2023-03-20T07:09:11;55.27;;;42.90;;
22172;SDS011;11252;50.596;17.648;2023-03-20T07:11:38;55.53;;;42.40;;
22172;SDS011;11252;50.596;17.648;2023-03-20T07:14:07;52.47;;;43.60;;
22172;SDS011;11252;50.596;17.648;2023-03-20T07:16:34;48.27;;;38.10;;
22172;SDS011;11252;50.596;17.648;2023-03-20T07:19:01;42.93;;;35.17;;
22172;SDS011;11252;50.596;17.648;2023-03-20T07:21:29;41.47;;;36.03;;
22172;SDS011;11252;50.596;17.648;2023-03-20T07:23:58;42.53;;;34.17;;
22172;SDS011;11252;50.596;17.648;2023-03-20T07:26:25;42.40;;;35.73;;
22172;SDS011;11252;50.596;17.648;2023-03-20T07:28:53;37.87;;;32.03;;
22172;SDS011;11252;50.596;17.648;2023-03-20T07:31:22;37.90;;;32.40;;
22172;SDS011;11252;50.596;17.648;2023-03-20T07:33:52;35.10;;;30.70;;
22172;SDS011;11252;50.596;17.648;2023-03-20T07:36:23;35.97;;;30.50;;
22172;SDS011;11252;50.596;17.648;2023-03-20T07:38:51;35.60;;;30.10;;
22172;SDS011;11252;50.596;17.648;2023-03-20T07:41:18;35.90;;;30.17;;
22172;SDS011;11252;50.596;17.648;2023-03-20T07:43:46;36.27;;;29.93;;
22172;SDS011;11252;50.596;17.648;2023-03-20T07:46:13;37.23;;;29.47;;
22172;SDS011;11252;50.596;17.648;2023-03-20T07:48:41;35.40;;;29.97;;
22172;SDS011;11252;50.596;17.648;2023-03-20T07:51:08;37.00;;;30.97;;
22172;SDS011;11252;50.596;17.648;2023-03-20T07:53:38;36.17;;;29.77;;
22172;SDS011;11252;50.596;17.648;2023-03-20T07:56:06;42.93;;;31.30;;
22172;SDS011;11252;50.596;17.648;2023-03-20T07:58:34;37.53;;;30.30;;
22172;SDS011;11252;50.596;17.648;2023-03-20T08:01:02;38.53;;;29.30;;
22172;SDS011;11252;50.596;17.648;2023-03-20T08:03:30;39.83;;;30.43;;
22172;SDS011;11252;50.596;17.648;2023-03-20T08:05:58;34.13;;;28.87;;
22172;SDS011;11252;50.596;17.648;2023-03-20T08:08:26;36.10;;;29.83;;
22172;SDS011;11252;50.596;17.648;2023-03-20T08:10:53;34.83;;;28.73;;
22172;SDS011;11252;50.596;17.648;2023-03-20T08:13:20;35.43;;;27.63;;
22172;SDS011;11252;50.596;17.648;2023-03-20T08:15:48;33.50;;;27.80;;
22172;SDS011;11252;50.596;17.648;2023-03-20T08:18:15;33.13;;;28.80;;
22172;SDS011;11252;50.596;17.648;2023-03-20T08:20:43;32.40;;;27.37;;
22172;SDS011;11252;50.596;17.648;2023-03-20T08:23:10;32.07;;;26.80;;
22172;SDS011;11252;50.596;17.648;2023-03-20T08:25:38;32.70;;;27.87;;
22172;SDS011;11252;50.596;17.648;2023-03-20T08:28:06;32.63;;;27.33;;
22172;SDS011;11252;50.596;17.648;2023-03-20T08:30:34;32.80;;;28.37;;
22172;SDS011;11252;50.596;17.648;2023-03-20T08:33:01;31.27;;;26.83;;
22172;SDS011;11252;50.596;17.648;2023-03-20T08:35:29;31.30;;;26.57;;
22172;SDS011;11252;50.596;17.648;2023-03-20T08:38:00;32.97;;;27.60;;
22172;SDS011;11252;50.596;17.648;2023-03-20T08:40:27;30.33;;;26.20;;
22172;SDS011;11252;50.596;17.648;2023-03-20T08:42:56;32.83;;;26.37;;
22172;SDS011;11252;50.596;17.648;2023-03-20T08:45:24;31.00;;;26.90;;
22172;SDS011;11252;50.596;17.648;2023-03-20T08:47:52;29.43;;;25.20;;
22172;SDS011;11252;50.596;17.648;2023-03-20T08:50:20;27.80;;;24.03;;
22172;SDS011;11252;50.596;17.648;2023-03-20T08:52:48;28.93;;;24.97;;
22172;SDS011;11252;50.596;17.648;2023-03-20T08:55:15;28.73;;;23.03;;
22172;SDS011;11252;50.596;17.648;2023-03-20T08:57:43;27.93;;;23.53;;
22172;SDS011;11252;50.596;17.648;2023-03-20T09:00:12;33.90;;;24.43;;
22172;SDS011;11252;50.596;17.648;2023-03-20T09:02:41;26.43;;;22.93;;
22172;SDS011;11252;50.596;17.648;2023-03-20T09:05:09;29.00;;;22.83;;
22172;SDS011;11252;50.596;17.648;2023-03-20T09:07:37;27.83;;;22.53;;
22172;SDS011;11252;50.596;17.648;2023-03-20T09:10:04;25.57;;;22.60;;
22172;SDS011;11252;50.596;17.648;2023-03-20T09:12:36;26.13;;;21.77;;
22172;SDS011;11252;50.596;17.648;2023-03-20T09:15:04;24.47;;;21.50;;
22172;SDS011;11252;50.596;17.648;2023-03-20T09:17:32;28.20;;;21.23;;
22172;SDS011;11252;50.596;17.648;2023-03-20T09:20:00;27.27;;;21.97;;
22172;SDS011;11252;50.596;17.648;2023-03-20T09:22:27;25.83;;;22.00;;
22172;SDS011;11252;50.596;17.648;2023-03-20T09:24:55;27.83;;;23.10;;
22172;SDS011;11252;50.596;17.648;2023-03-20T09:27:22;26.63;;;22.23;;
22172;SDS011;11252;50.596;17.648;2023-03-20T09:29:49;24.13;;;21.53;;
22172;SDS011;11252;50.596;17.648;2023-03-20T09:32:17;25.83;;;21.73;;
22172;SDS011;11252;50.596;17.648;2023-03-20T09:34:45;28.80;;;23.50;;
22172;SDS011;11252;50.596;17.648;2023-03-20T09:37:12;25.70;;;21.70;;
22172;SDS011;11252;50.596;17.648;2023-03-20T09:39:39;28.27;;;21.47;;
22172;SDS011;11252;50.596;17.648;2023-03-20T09:42:56;28.37;;;22.03;;
22172;SDS011;11252;50.596;17.648;2023-03-20T09:47:48;24.80;;;21.10;;
22172;SDS011;11252;50.596;17.648;2023-03-20T09:50:30;27.27;;;21.87;;
22172;SDS011;11252;50.596;17.648;2023-03-20T09:53:27;27.17;;;21.47;;
22172;SDS011;11252;50.596;17.648;2023-03-20T09:55:59;26.83;;;21.27;;
22172;SDS011;11252;50.596;17.648;2023-03-20T09:58:31;25.40;;;21.17;;
22172;SDS011;11252;50.596;17.648;2023-03-20T10:01:00;30.80;;;21.73;;
22172;SDS011;11252;50.596;17.648;2023-03-20T10:06:16;25.53;;;22.47;;
22172;SDS011;11252;50.596;17.648;2023-03-20T10:08:44;31.83;;;23.73;;
22172;SDS011;11252;50.596;17.648;2023-03-20T10:11:17;28.37;;;22.93;;
22172;SDS011;11252;50.596;17.648;2023-03-20T10:21:56;25.90;;;22.73;;
22172;SDS011;11252;50.596;17.648;2023-03-20T10:24:46;26.23;;;19.80;;
22172;SDS011;11252;50.596;17.648;2023-03-20T10:27:23;26.43;;;21.53;;
22172;SDS011;11252;50.596;17.648;2023-03-20T10:33:15;25.50;;;20.73;;
22172;SDS011;11252;50.596;17.648;2023-03-20T10:38:47;24.73;;;19.77;;
22172;SDS011;11252;50.596;17.648;2023-03-20T10:41:28;26.60;;;20.53;;
22172;SDS011;11252;50.596;17.648;2023-03-20T10:44:00;27.93;;;21.37;;
22172;SDS011;11252;50.596;17.648;2023-03-20T10:46:31;25.60;;;21.20;;
22172;SDS011;11252;50.596;17.648;2023-03-20T10:49:05;24.17;;;21.43;;
22172;SDS011;11252;50.596;17.648;2023-03-20T10:51:46;22.13;;;19.23;;
22172;SDS011;11252;50.596;17.648;2023-03-20T10:54:26;24.63;;;20.10;;
22172;SDS011;11252;50.596;17.648;2023-03-20T10:57:00;23.83;;;19.27;;
22172;SDS011;11252;50.596;17.648;2023-03-20T10:59:36;24.03;;;20.00;;
22172;SDS011;11252;50.596;17.648;2023-03-20T11:02:10;25.70;;;21.33;;
22172;SDS011;11252;50.596;17.648;2023-03-20T11:04:39;26.33;;;21.23;;
22172;SDS011;11252;50.596;17.648;2023-03-20T11:12:36;24.13;;;20.73;;
22172;SDS011;11252;50.596;17.648;2023-03-20T11:15:18;95.03;;;55.60;;
22172;SDS011;11252;50.596;17.648;2023-03-20T11:17:59;31.27;;;24.70;;
22172;SDS011;11252;50.596;17.648;2023-03-20T11:20:32;26.40;;;21.83;;
22172;SDS011;11252;50.596;17.648;2023-03-20T11:23:04;27.37;;;21.93;;
22172;SDS011;11252;50.596;17.648;2023-03-20T11:25:35;24.27;;;21.63;;
22172;SDS011;11252;50.596;17.648;2023-03-20T11:33:37;24.57;;;20.90;;
22172;SDS011;11252;50.596;17.648;2023-03-20T11:38:53;24.60;;;21.47;;
22172;SDS011;11252;50.596;17.648;2023-03-20T11:44:23;27.47;;;22.37;;
22172;SDS011;11252;50.596;17.648;2023-03-20T11:46:59;25.70;;;21.93;;
22172;SDS011;11252;50.596;17.648;2023-03-20T11:49:32;25.47;;;22.50;;
22172;SDS011;11252;50.596;17.648;2023-03-20T11:52:12;24.87;;;20.90;;
22172;SDS011;11252;50.596;17.648;2023-03-20T11:54:49;23.17;;;19.97;;
22172;SDS011;11252;50.596;17.648;2023-03-20T12:02:48;23.53;;;20.90;;
22172;SDS011;11252;50.596;17.648;2023-03-20T12:05:18;23.63;;;19.27;;
22172;SDS011;11252;50.596;17.648;2023-03-20T12:08:11;24.77;;;20.23;;
22172;SDS011;11252;50.596;17.648;2023-03-20T12:10:41;20.70;;;18.10;;
22172;SDS011;11252;50.596;17.648;2023-03-20T12:13:15;18.03;;;13.23;;
22172;SDS011;11252;50.596;17.648;2023-03-20T12:15:52;21.73;;;17.57;;
22172;SDS011;11252;50.596;17.648;2023-03-20T12:19:24;17.20;;;14.43;;
22172;SDS011;11252;50.596;17.648;2023-03-20T12:24:57;15.17;;;13.40;;
22172;SDS011;11252;50.596;17.648;2023-03-20T12:27:34;16.53;;;14.23;;
22172;SDS011;11252;50.596;17.648;2023-03-20T12:30:07;17.13;;;14.50;;
22172;SDS011;11252;50.596;17.648;2023-03-20T12:35:37;11.80;;;10.60;;
22172;SDS011;11252;50.596;17.648;2023-03-20T12:38:15;14.07;;;11.63;;
22172;SDS011;11252;50.596;17.648;2023-03-20T12:40:47;12.68;;;11.25;;
22172;SDS011;11252;50.596;17.648;2023-03-20T12:43:30;12.43;;;10.43;;
22172;SDS011;11252;50.596;17.648;2023-03-20T12:51:26;8.57;;;7.40;;
22172;SDS011;11252;50.596;17.648;2023-03-20T12:56:53;11.02;;;9.98;;
22172;SDS011;11252;50.596;17.648;2023-03-20T12:59:26;10.93;;;7.85;;
22172;SDS011;11252;50.596;17.648;2023-03-20T13:02:02;7.90;;;6.90;;
22172;SDS011;11252;50.596;17.648;2023-03-20T13:05:40;10.98;;;9.15;;
22172;SDS011;11252;50.596;17.648;2023-03-20T13:10:23;13.40;;;12.07;;
22172;SDS011;11252;50.596;17.648;2023-03-20T13:24:34;14.05;;;12.57;;
22172;SDS011;11252;50.596;17.648;2023-03-20T13:27:19;14.27;;;11.68;;
22172;SDS011;11252;50.596;17.648;2023-03-20T13:38:45;16.25;;;13.70;;
22172;SDS011;11252;50.596;17.648;2023-03-20T13:41:18;15.15;;;12.77;;
22172;SDS011;11252;50.596;17.648;2023-03-20T13:43:50;15.52;;;13.45;;
22172;SDS011;11252;50.596;17.648;2023-03-20T13:46:27;16.77;;;13.07;;
22172;SDS011;11252;50.596;17.648;2023-03-20T14:05:51;18.08;;;14.02;;
22172;SDS011;11252;50.596;17.648;2023-03-20T14:13:47;15.45;;;13.85;;
22172;SDS011;11252;50.596;17.648;2023-03-20T14:16:19;16.25;;;14.30;;
22172;SDS011;11252;50.596;17.648;2023-03-20T14:18:48;15.95;;;14.30;;
22172;SDS011;11252;50.596;17.648;2023-03-20T14:21:18;15.75;;;14.10;;
22172;SDS011;11252;50.596;17.648;2023-03-20T14:23:49;15.73;;;13.57;;
22172;SDS011;11252;50.596;17.648;2023-03-20T14:26:29;16.03;;;13.63;;
22172;SDS011;11252;50.596;17.648;2023-03-20T14:31:38;16.37;;;13.40;;
22172;SDS011;11252;50.596;17.648;2023-03-20T14:36:46;18.63;;;14.27;;
22172;SDS011;11252;50.596;17.648;2023-03-20T14:39:39;16.10;;;13.93;;
22172;SDS011;11252;50.596;17.648;2023-03-20T14:53:16;14.30;;;10.63;;
22172;SDS011;11252;50.596;17.648;2023-03-20T14:55:51;15.73;;;11.63;;
22172;SDS011;11252;50.596;17.648;2023-03-20T14:59:05;12.47;;;10.23;;
22172;SDS011;11252;50.596;17.648;2023-03-20T15:03:53;11.87;;;10.63;;
22172;SDS011;11252;50.596;17.648;2023-03-20T15:06:27;13.43;;;11.97;;
22172;SDS011;11252;50.596;17.648;2023-03-20T15:08:57;20.20;;;14.90;;
22172;SDS011;11252;50.596;17.648;2023-03-20T15:11:29;13.40;;;11.73;;
22172;SDS011;11252;50.596;17.648;2023-03-20T15:14:01;12.00;;;10.70;;
22172;SDS011;11252;50.596;17.648;2023-03-20T15:16:33;12.87;;;10.20;;
22172;SDS011;11252;50.596;17.648;2023-03-20T15:19:03;15.60;;;11.67;;
22172;SDS011;11252;50.596;17.648;2023-03-20T15:21:53;16.40;;;14.73;;
22172;SDS011;11252;50.596;17.648;2023-03-20T15:24:26;16.33;;;14.63;;
22172;SDS011;11252;50.596;17.648;2023-03-20T15:26:58;14.80;;;13.37;;
22172;SDS011;11252;50.596;17.648;2023-03-20T15:29:27;16.17;;;14.50;;
22172;SDS011;11252;50.596;17.648;2023-03-20T15:31:58;23.47;;;18.90;;
22172;SDS011;11252;50.596;17.648;2023-03-20T15:34:40;27.23;;;22.13;;
22172;SDS011;11252;50.596;17.648;2023-03-20T15:37:16;29.10;;;23.97;;
22172;SDS011;11252;50.596;17.648;2023-03-20T15:39:47;12.37;;;11.07;;
22172;SDS011;11252;50.596;17.648;2023-03-20T15:42:20;27.90;;;19.07;;
22172;SDS011;11252;50.596;17.648;2023-03-20T15:44:51;53.33;;;33.27;;
22172;SDS011;11252;50.596;17.648;2023-03-20T15:47:21;56.90;;;35.03;;
22172;SDS011;11252;50.596;17.648;2023-03-20T15:49:51;101.87;;;59.17;;
22172;SDS011;11252;50.596;17.648;2023-03-20T15:54:57;8.07;;;7.27;;
22172;SDS011;11252;50.596;17.648;2023-03-20T15:57:31;45.17;;;31.23;;
22172;SDS011;11252;50.596;17.648;2023-03-20T16:00:14;7.00;;;6.40;;
22172;SDS011;11252;50.596;17.648;2023-03-20T16:02:49;9.63;;;7.20;;
22172;SDS011;11252;50.596;17.648;2023-03-20T16:05:18;14.67;;;9.63;;
22172;SDS011;11252;50.596;17.648;2023-03-20T16:07:51;13.20;;;10.77;;
22172;SDS011;11252;50.596;17.648;2023-03-20T16:10:29;6.37;;;5.57;;
22172;SDS011;11252;50.596;17.648;2023-03-20T16:13:02;13.73;;;6.73;;
22172;SDS011;11252;50.596;17.648;2023-03-20T16:15:37;6.03;;;5.43;;
22172;SDS011;11252;50.596;17.648;2023-03-20T16:18:07;6.83;;;6.03;;
22172;SDS011;11252;50.596;17.648;2023-03-20T16:20:43;8.00;;;6.67;;
22172;SDS011;11252;50.596;17.648;2023-03-20T16:23:52;9.63;;;7.27;;
22172;SDS011;11252;50.596;17.648;2023-03-20T16:26:16;10.53;;;8.03;;
22172;SDS011;11252;50.596;17.648;2023-03-20T16:28:54;8.67;;;7.60;;
22172;SDS011;11252;50.596;17.648;2023-03-20T16:31:24;14.37;;;10.37;;
22172;SDS011;11252;50.596;17.648;2023-03-20T16:33:52;22.27;;;14.90;;
22172;SDS011;11252;50.596;17.648;2023-03-20T16:36:28;17.80;;;13.50;;
22172;SDS011;11252;50.596;17.648;2023-03-20T16:39:05;8.10;;;7.30;;
22172;SDS011;11252;50.596;17.648;2023-03-20T16:41:41;7.83;;;7.17;;
22172;SDS011;11252;50.596;17.648;2023-03-20T16:44:11;7.87;;;7.17;;
22172;SDS011;11252;50.596;17.648;2023-03-20T16:49:47;9.60;;;8.60;;
22172;SDS011;11252;50.596;17.648;2023-03-20T16:52:26;9.67;;;8.70;;
22172;SDS011;11252;50.596;17.648;2023-03-20T16:55:03;9.40;;;8.00;;
22172;SDS011;11252;50.596;17.648;2023-03-20T16:57:43;9.20;;;8.33;;
22172;SDS011;11252;50.596;17.648;2023-03-20T17:03:04;9.77;;;8.47;;
22172;SDS011;11252;50.596;17.648;2023-03-20T17:05:53;12.47;;;9.47;;
22172;SDS011;11252;50.596;17.648;2023-03-20T17:08:30;27.17;;;18.90;;
22172;SDS011;11252;50.596;17.648;2023-03-20T17:11:03;16.00;;;13.50;;
22172;SDS011;11252;50.596;17.648;2023-03-20T17:13:37;8.97;;;8.07;;
22172;SDS011;11252;50.596;17.648;2023-03-20T17:16:05;7.77;;;7.07;;
22172;SDS011;11252;50.596;17.648;2023-03-20T17:18:33;8.80;;;7.90;;
22172;SDS011;11252;50.596;17.648;2023-03-20T17:21:03;8.33;;;7.57;;
22172;SDS011;11252;50.596;17.648;2023-03-20T17:23:31;8.33;;;7.63;;
22172;SDS011;11252;50.596;17.648;2023-03-20T17:25:59;8.93;;;7.80;;
22172;SDS011;11252;50.596;17.648;2023-03-20T17:28:28;8.83;;;7.93;;
22172;SDS011;11252;50.596;17.648;2023-03-20T17:31:00;8.27;;;7.57;;
22172;SDS011;11252;50.596;17.648;2023-03-20T17:33:31;9.57;;;8.17;;
22172;SDS011;11252;50.596;17.648;2023-03-20T17:35:59;10.17;;;8.50;;
22172;SDS011;11252;50.596;17.648;2023-03-20T17:38:27;10.47;;;9.47;;
22172;SDS011;11252;50.596;17.648;2023-03-20T17:40:54;9.57;;;8.67;;